createdAt,value
2018-12-11T00:01:33.491Z,6.57
2018-12-11T00:04:04.416Z,6.07
2018-12-11T00:06:32.595Z,4.43
2018-12-11T00:09:02.932Z,5.47
2018-12-11T00:11:33.970Z,8.03
2018-12-11T00:14:03.234Z,8.80
2018-12-11T00:16:31.437Z,5.20
2018-12-11T00:18:59.715Z,4.90
2018-12-11T00:21:28.908Z,13.27
2018-12-11T00:23:57.319Z,12.73
2018-12-11T00:26:25.572Z,10.40
2018-12-11T00:28:54.364Z,7.17
2018-12-11T00:31:22.632Z,7.93
2018-12-11T00:33:51.315Z,4.20
2018-12-11T00:36:19.546Z,4.67
2018-12-11T00:38:48.158Z,7.43
2018-12-11T00:41:16.310Z,5.77
2018-12-11T00:43:45.462Z,8.27
2018-12-11T00:46:13.783Z,8.00
2018-12-11T00:48:41.948Z,5.30
2018-12-11T00:51:10.122Z,6.67
2018-12-11T00:53:38.422Z,6.80
2018-12-11T00:56:08.407Z,5.47
2018-12-11T00:58:37.515Z,7.83
2018-12-11T01:01:06.127Z,8.80
2018-12-11T01:03:34.684Z,8.33
2018-12-11T01:06:04.522Z,7.33
2018-12-11T01:08:33.850Z,8.33
2018-12-11T01:11:06.733Z,7.90
2018-12-11T01:13:35.096Z,8.33
2018-12-11T01:16:07.422Z,7.03
2018-12-11T01:18:36.517Z,7.80
2018-12-11T01:21:04.759Z,4.90
2018-12-11T01:23:32.975Z,6.80
2018-12-11T01:26:04.688Z,10.10
2018-12-11T01:28:39.563Z,14.00
2018-12-11T01:31:07.943Z,8.20
2018-12-11T01:33:36.087Z,7.47
2018-12-11T01:36:07.267Z,5.13
2018-12-11T01:38:35.446Z,5.90
2018-12-11T01:41:03.838Z,9.03
2018-12-11T01:43:32.018Z,9.10
2018-12-11T01:46:00.186Z,6.80
2018-12-11T01:48:28.391Z,5.37
2018-12-11T01:50:56.611Z,7.83
2018-12-11T01:53:24.942Z,4.70
2018-12-11T01:55:53.086Z,6.40
2018-12-11T01:58:21.235Z,9.23
2018-12-11T02:00:50.374Z,10.07
2018-12-11T02:03:19.444Z,8.67
2018-12-11T02:05:47.642Z,5.43
2018-12-11T02:08:15.840Z,8.27
2018-12-11T02:10:44.416Z,6.87
2018-12-11T02:13:12.643Z,8.33
2018-12-11T02:15:40.806Z,7.07
2018-12-11T02:18:08.957Z,13.10
2018-12-11T02:20:37.201Z,7.50
2018-12-11T02:23:05.416Z,6.70
2018-12-11T02:25:33.575Z,10.10
2018-12-11T02:28:05.054Z,8.90
2018-12-11T02:30:33.260Z,11.20
2018-12-11T02:33:04.224Z,9.10
2018-12-11T02:35:32.704Z,6.53
2018-12-11T02:40:34.757Z,5.90
2018-12-11T02:43:08.030Z,17.17
2018-12-11T02:45:36.246Z,8.83
2018-12-11T02:48:04.930Z,9.10
2018-12-11T02:50:33.153Z,9.77
2018-12-11T02:53:06.603Z,9.03
2018-12-11T02:55:34.883Z,11.93
2018-12-11T02:58:06.751Z,4.90
2018-12-11T03:00:34.975Z,14.50
2018-12-11T03:03:04.404Z,12.30
2018-12-11T03:05:32.914Z,7.37
2018-12-11T03:08:03.331Z,12.17
2018-12-11T03:10:31.475Z,12.23
2018-12-11T03:13:00.346Z,6.17
2018-12-11T03:15:28.558Z,10.37
2018-12-11T03:17:57.254Z,8.93
2018-12-11T03:20:25.443Z,13.97
2018-12-11T03:22:55.929Z,6.60
2018-12-11T03:25:24.078Z,12.47
2018-12-11T03:27:52.938Z,9.43
2018-12-11T03:30:21.188Z,8.17
2018-12-11T03:32:49.441Z,9.97
2018-12-11T03:35:17.665Z,6.60
2018-12-11T03:37:46.035Z,5.97
2018-12-11T03:40:14.528Z,10.77
2018-12-11T03:42:42.811Z,10.33
2018-12-11T03:45:11.066Z,5.00
2018-12-11T03:47:39.219Z,12.93
2018-12-11T03:50:08.138Z,7.87
2018-12-11T03:52:36.441Z,5.60
2018-12-11T03:55:06.407Z,6.73
2018-12-11T03:57:34.619Z,6.23
2018-12-11T04:00:08.074Z,14.60
2018-12-11T04:02:36.303Z,8.10
2018-12-11T04:05:07.876Z,5.33
2018-12-11T04:07:36.384Z,6.73
2018-12-11T04:10:07.747Z,8.53
2018-12-11T04:12:35.918Z,14.27
2018-12-11T04:15:06.681Z,7.43
2018-12-11T04:17:34.891Z,10.73
2018-12-11T04:20:06.578Z,9.13
2018-12-11T04:22:34.750Z,8.70
2018-12-11T04:25:07.267Z,7.50
2018-12-11T04:27:35.529Z,8.20
2018-12-11T04:30:07.794Z,7.87
2018-12-11T04:32:35.960Z,9.60
2018-12-11T04:35:05.323Z,10.70
2018-12-11T04:37:33.543Z,9.43
2018-12-11T04:40:02.730Z,8.97
2018-12-11T04:42:31.870Z,13.47
2018-12-11T04:45:00.213Z,9.37
2018-12-11T04:47:28.414Z,9.50
2018-12-11T04:49:56.565Z,10.27
2018-12-11T04:52:24.698Z,7.43
2018-12-11T04:54:52.985Z,6.47
2018-12-11T04:57:21.126Z,6.50
2018-12-11T04:59:49.646Z,7.70
2018-12-11T05:02:17.870Z,5.73
2018-12-11T05:07:20.743Z,6.63
2018-12-11T05:09:49.078Z,10.37
2018-12-11T05:12:17.346Z,12.00
2018-12-11T05:14:45.567Z,10.17
2018-12-11T05:17:13.771Z,13.10
2018-12-11T05:19:42.024Z,10.70
2018-12-11T05:22:10.296Z,9.10
2018-12-11T05:24:38.478Z,10.83
2018-12-11T05:27:06.930Z,10.00
2018-12-11T05:29:35.307Z,16.40
2018-12-11T05:32:04.353Z,19.73
2018-12-11T05:34:32.487Z,10.50
2018-12-11T05:37:04.127Z,9.10
2018-12-11T05:39:32.302Z,10.90
2018-12-11T05:42:00.535Z,11.20
2018-12-11T05:44:29.062Z,15.13
2018-12-11T05:46:57.372Z,11.20
2018-12-11T05:49:25.685Z,11.30
2018-12-11T05:51:53.866Z,9.67
2018-12-11T05:54:22.039Z,10.80
2018-12-11T05:56:50.434Z,7.63
2018-12-11T05:59:19.081Z,13.40
2018-12-11T06:01:47.258Z,8.70
2018-12-11T06:04:15.579Z,10.93
2018-12-11T06:06:43.833Z,5.90
2018-12-11T06:09:12.091Z,8.57
2018-12-11T06:11:40.304Z,10.73
2018-12-11T06:14:08.659Z,11.27
2018-12-11T06:16:37.410Z,12.90
2018-12-11T06:19:05.610Z,11.07
2018-12-11T06:21:34.834Z,8.63
2018-12-11T06:24:04.974Z,18.60
2018-12-11T06:26:33.155Z,6.83
2018-12-11T06:29:07.042Z,10.40
2018-12-11T06:31:35.222Z,16.53
2018-12-11T06:34:04.401Z,6.53
2018-12-11T06:36:33.075Z,9.90
2018-12-11T06:39:04.349Z,6.40
2018-12-11T06:41:32.641Z,8.30
2018-12-11T06:44:05.195Z,8.80
2018-12-11T06:46:33.402Z,10.67
2018-12-11T06:49:04.842Z,10.77
2018-12-11T06:51:33.194Z,9.60
2018-12-11T06:54:02.806Z,10.83
2018-12-11T06:56:31.011Z,8.60
2018-12-11T06:58:59.255Z,11.73
2018-12-11T07:01:27.474Z,6.00
2018-12-11T07:03:55.642Z,9.57
2018-12-11T07:06:23.862Z,9.80
2018-12-11T07:08:52.238Z,24.97
2018-12-11T07:11:20.748Z,19.37
2018-12-11T07:13:49.174Z,12.37
2018-12-11T07:16:17.342Z,7.27
2018-12-11T07:18:45.868Z,12.33
2018-12-11T07:21:14.054Z,9.00
2018-12-11T07:23:42.256Z,12.50
2018-12-11T07:26:10.417Z,12.80
2018-12-11T07:28:39.526Z,12.80
2018-12-11T07:31:07.792Z,6.97
2018-12-11T07:33:36.046Z,10.00
2018-12-11T07:36:05.068Z,9.73
2018-12-11T07:38:34.689Z,11.93
2018-12-11T07:41:03.995Z,9.30
2018-12-11T07:43:32.952Z,9.13
2018-12-11T07:46:01.910Z,8.17
2018-12-11T07:48:30.727Z,9.13
2018-12-11T07:50:59.663Z,8.60
2018-12-11T07:53:27.830Z,9.13
2018-12-11T07:56:00.125Z,8.77
2018-12-11T07:58:26.218Z,9.50
2018-12-11T08:00:54.383Z,11.97
2018-12-11T08:03:22.686Z,6.90
2018-12-11T08:05:50.858Z,14.43
2018-12-11T08:08:19.072Z,9.03
2018-12-11T08:10:47.303Z,10.53
2018-12-11T08:13:15.543Z,9.30
2018-12-11T08:15:43.719Z,8.47
2018-12-11T08:18:11.890Z,8.70
2018-12-11T08:20:41.102Z,10.13
2018-12-11T08:23:09.385Z,10.80
2018-12-11T08:25:37.627Z,11.50
2018-12-11T08:28:09.488Z,9.47
2018-12-11T08:30:37.763Z,12.30
2018-12-11T08:33:07.956Z,8.40
2018-12-11T08:35:36.125Z,13.23
2018-12-11T08:38:04.962Z,11.03
2018-12-11T08:40:33.144Z,9.90
2018-12-11T08:43:02.370Z,14.43
2018-12-11T08:45:30.556Z,14.63
2018-12-11T08:47:58.774Z,12.17
2018-12-11T08:50:27.058Z,11.17
2018-12-11T08:52:55.294Z,7.23
2018-12-11T08:55:23.480Z,14.13
2018-12-11T08:57:51.628Z,14.07
2018-12-11T09:00:20.678Z,12.80
2018-12-11T09:02:48.854Z,15.27
2018-12-11T09:05:17.082Z,16.23
2018-12-11T09:07:45.274Z,10.97
2018-12-11T09:10:13.664Z,18.03
2018-12-11T09:12:41.885Z,7.40
2018-12-11T09:15:10.278Z,8.20
2018-12-11T09:17:39.417Z,6.97
2018-12-11T09:20:07.793Z,12.50
2018-12-11T09:22:36.023Z,11.00
2018-12-11T09:25:04.667Z,9.30
2018-12-11T09:27:33.162Z,7.37
2018-12-11T09:30:03.865Z,7.23
2018-12-11T09:32:32.371Z,7.20
2018-12-11T09:35:00.595Z,8.23
2018-12-11T09:37:28.782Z,7.90
2018-12-11T09:39:57.486Z,6.33
2018-12-11T09:42:28.015Z,5.13
2018-12-11T09:44:55.891Z,7.00
2018-12-11T09:47:23.999Z,8.53
2018-12-11T09:49:52.233Z,8.17
2018-12-11T09:52:21.318Z,4.50
2018-12-11T09:54:49.499Z,6.97
2018-12-11T09:57:17.995Z,4.90
2018-12-11T09:59:46.803Z,9.90
2018-12-11T10:02:14.942Z,5.80
2018-12-11T10:04:43.219Z,5.60
2018-12-11T10:07:11.399Z,4.17
2018-12-11T10:09:39.586Z,5.80
2018-12-11T10:12:08.654Z,5.03
2018-12-11T10:14:36.794Z,3.87
2018-12-11T10:17:07.226Z,4.60
2018-12-11T10:19:35.402Z,7.87
2018-12-11T10:22:05.055Z,8.80
2018-12-11T10:24:33.226Z,5.37
2018-12-11T10:27:02.865Z,4.63
2018-12-11T10:29:31.135Z,6.57
2018-12-11T10:31:59.384Z,6.97
2018-12-11T10:34:27.513Z,5.33
2018-12-11T10:36:55.751Z,8.90
2018-12-11T10:39:23.901Z,7.57
2018-12-11T10:41:52.367Z,6.73
2018-12-11T10:44:20.594Z,8.67
2018-12-11T10:46:48.739Z,6.17
2018-12-11T10:49:16.914Z,6.17
2018-12-11T10:51:45.048Z,5.60
2018-12-11T10:54:13.215Z,5.57
2018-12-11T10:56:41.370Z,7.67
2018-12-11T10:59:10.327Z,8.80
2018-12-11T11:01:40.598Z,9.60
2018-12-11T11:04:09.000Z,7.10
2018-12-11T11:06:37.251Z,6.00
2018-12-11T11:09:07.511Z,5.70
2018-12-11T11:11:36.154Z,5.53
2018-12-11T11:14:06.291Z,6.10
2018-12-11T11:16:34.635Z,8.63
2018-12-11T11:19:07.100Z,12.70
2018-12-11T11:21:36.271Z,6.50
2018-12-11T11:24:04.811Z,3.20
2018-12-11T11:26:33.116Z,3.13
2018-12-11T11:29:03.242Z,4.47
2018-12-11T11:31:31.407Z,4.57
2018-12-11T11:33:59.579Z,2.90
2018-12-11T11:36:27.799Z,3.40
2018-12-11T11:38:56.030Z,3.90
2018-12-11T11:41:24.257Z,5.20
2018-12-11T11:43:52.669Z,4.83
2018-12-11T11:46:20.909Z,2.73
2018-12-11T11:48:49.038Z,2.57
2018-12-11T11:51:17.210Z,2.70
2018-12-11T11:53:45.438Z,2.67
2018-12-11T11:56:13.685Z,1.93
2018-12-11T11:58:42.144Z,5.20
2018-12-11T12:01:10.601Z,5.93
2018-12-11T12:03:38.794Z,3.80
2018-12-11T12:06:07.475Z,4.93
2018-12-11T12:08:35.663Z,4.93
2018-12-11T12:11:05.173Z,4.67
2018-12-11T12:13:33.358Z,5.87
2018-12-11T12:16:05.013Z,3.90
2018-12-11T12:18:33.572Z,5.97
2018-12-11T12:21:06.375Z,5.40
2018-12-11T12:23:35.516Z,3.20
2018-12-11T12:26:04.074Z,6.03
2018-12-11T12:28:32.331Z,3.73
2018-12-11T12:31:04.554Z,8.87
2018-12-11T12:33:32.683Z,8.40
2018-12-11T12:36:05.235Z,4.20
2018-12-11T12:38:33.492Z,7.03
2018-12-11T12:41:07.208Z,6.23
2018-12-11T12:43:35.391Z,6.57
2018-12-11T12:46:05.784Z,7.80
2018-12-11T12:48:34.077Z,5.30
2018-12-11T12:51:05.562Z,5.33
2018-12-11T12:53:33.818Z,6.13
2018-12-11T12:56:05.575Z,6.47
2018-12-11T12:58:33.782Z,8.17
2018-12-11T13:01:03.791Z,5.03
2018-12-11T13:03:32.018Z,4.83
2018-12-11T13:06:00.304Z,9.13
2018-12-11T13:08:28.454Z,8.53
2018-12-11T13:10:56.689Z,8.20
2018-12-11T13:13:25.325Z,12.57
2018-12-11T13:15:53.849Z,9.63
2018-12-11T13:18:21.977Z,6.03
2018-12-11T13:20:51.115Z,9.93
2018-12-11T13:23:19.363Z,10.10
2018-12-11T13:25:47.650Z,7.67
2018-12-11T13:28:15.819Z,7.90
2018-12-11T13:30:43.997Z,9.13
2018-12-11T13:33:12.264Z,6.13
2018-12-11T13:35:40.518Z,6.57
2018-12-11T13:38:08.798Z,8.23
2018-12-11T13:40:37.502Z,6.40
2018-12-11T13:43:07.050Z,9.83
2018-12-11T13:45:35.207Z,7.23
2018-12-11T13:48:07.415Z,13.67
2018-12-11T13:50:35.566Z,5.20
2018-12-11T13:53:04.115Z,16.33
2018-12-11T13:55:32.367Z,6.33
2018-12-11T13:58:00.494Z,7.37
2018-12-11T14:00:28.694Z,4.57
2018-12-11T14:02:57.616Z,7.23
2018-12-11T14:05:25.762Z,7.77
2018-12-11T14:07:53.917Z,6.33
2018-12-11T14:10:22.082Z,6.30
2018-12-11T14:12:50.240Z,9.33
2018-12-11T14:15:18.500Z,7.67
2018-12-11T14:17:46.706Z,7.40
2018-12-11T14:20:14.959Z,5.53
2018-12-11T14:22:43.131Z,8.60
2018-12-11T14:25:11.474Z,8.60
2018-12-11T14:27:39.634Z,10.70
2018-12-11T14:30:11.205Z,6.20
2018-12-11T14:32:39.763Z,9.00
2018-12-11T14:35:08.165Z,7.30
2018-12-11T14:37:36.414Z,6.60
2018-12-11T14:40:06.130Z,7.37
2018-12-11T14:42:34.366Z,9.93
2018-12-11T14:45:06.225Z,10.13
2018-12-11T14:47:34.991Z,8.67
2018-12-11T14:50:07.470Z,11.33
2018-12-11T14:52:35.734Z,9.93
2018-12-11T14:55:05.722Z,9.73
2018-12-11T14:57:33.952Z,6.93
2018-12-11T15:00:03.027Z,10.20
2018-12-11T15:02:31.281Z,5.83
2018-12-11T15:04:59.884Z,9.97
2018-12-11T15:07:28.372Z,11.07
2018-12-11T15:09:56.540Z,8.93
2018-12-11T15:12:24.975Z,7.33
2018-12-11T15:14:53.154Z,10.57
2018-12-11T15:17:21.359Z,7.07
2018-12-11T15:19:49.563Z,10.30
2018-12-11T15:22:17.841Z,11.93
2018-12-11T15:24:45.975Z,8.30
2018-12-11T15:27:14.132Z,12.63
2018-12-11T15:29:42.407Z,15.87
2018-12-11T15:32:11.162Z,7.20
2018-12-11T15:34:39.354Z,8.57
2018-12-11T15:37:07.558Z,5.70
2018-12-11T15:39:36.174Z,8.77
2018-12-11T15:42:04.910Z,6.63
2018-12-11T15:44:33.134Z,11.47
2018-12-11T15:47:02.930Z,13.40
2018-12-11T15:49:31.076Z,8.30
2018-12-11T15:51:59.207Z,7.63
2018-12-11T15:54:27.370Z,9.27
2018-12-11T15:56:56.208Z,8.20
2018-12-11T15:59:24.720Z,9.50
2018-12-11T16:01:53.023Z,10.17
2018-12-11T16:04:21.170Z,11.90
2018-12-11T16:06:49.278Z,11.07
2018-12-11T16:09:19.461Z,10.20
2018-12-11T16:11:48.047Z,11.43
2018-12-11T16:14:16.332Z,19.80
2018-12-11T16:16:44.578Z,12.30
2018-12-11T16:19:13.163Z,11.10
2018-12-11T16:21:41.334Z,10.57
2018-12-11T16:24:09.527Z,17.80
2018-12-11T16:26:37.804Z,9.17
2018-12-11T16:29:06.707Z,11.47
2018-12-11T16:31:34.955Z,11.73
2018-12-11T16:34:05.279Z,12.50
2018-12-11T16:36:33.507Z,11.80
2018-12-11T16:39:05.570Z,12.67
2018-12-11T16:41:33.834Z,16.90
2018-12-11T16:44:05.205Z,11.30
2018-12-11T16:46:33.459Z,12.50
2018-12-11T16:49:05.619Z,13.13
2018-12-11T16:51:33.898Z,15.90
2018-12-11T16:54:04.751Z,20.00
2018-12-11T16:56:32.928Z,17.87
2018-12-11T16:59:04.854Z,14.83
2018-12-11T17:01:32.975Z,22.43
2018-12-11T17:04:05.547Z,14.23
2018-12-11T17:06:33.742Z,13.00
2018-12-11T17:09:03.791Z,20.07
2018-12-11T17:11:31.938Z,19.30
2018-12-11T17:14:00.088Z,17.27
2018-12-11T17:16:28.994Z,12.60
2018-12-11T17:18:57.226Z,22.67
2018-12-11T17:21:25.427Z,19.33
2018-12-11T17:23:53.952Z,16.50
2018-12-11T17:26:22.095Z,13.67
2018-12-11T17:28:51.275Z,19.90
2018-12-11T17:31:19.458Z,21.57
2018-12-11T17:33:47.699Z,18.63
2018-12-11T17:36:17.375Z,17.60
2018-12-11T17:38:45.583Z,17.57
2018-12-11T17:41:13.850Z,17.53
2018-12-11T17:43:41.995Z,19.97
2018-12-11T17:46:10.187Z,19.27
2018-12-11T17:48:41.550Z,14.30
2018-12-11T17:51:08.783Z,20.00
2018-12-11T17:53:37.291Z,16.23
2018-12-11T17:56:06.998Z,20.20
2018-12-11T17:58:35.187Z,13.50
2018-12-11T18:01:08.046Z,15.70
2018-12-11T18:03:36.235Z,12.00
2018-12-11T18:06:06.646Z,13.37
2018-12-11T18:08:34.919Z,14.67
2018-12-11T18:11:05.001Z,13.27
2018-12-11T18:13:33.174Z,14.93
2018-12-11T18:16:05.618Z,18.93
2018-12-11T18:18:33.853Z,11.53
2018-12-11T18:21:05.576Z,13.17
2018-12-11T18:23:34.202Z,12.90
2018-12-11T18:26:05.070Z,14.83
2018-12-11T18:28:33.302Z,12.20
2018-12-11T18:31:04.867Z,14.20
2018-12-11T18:33:33.059Z,13.83
2018-12-11T18:36:02.962Z,20.37
2018-12-11T18:38:31.170Z,19.53
2018-12-11T18:40:59.337Z,17.60
2018-12-11T18:43:27.503Z,14.90
2018-12-11T18:45:55.734Z,11.63
2018-12-11T18:48:23.920Z,15.07
2018-12-11T18:50:53.062Z,10.83
2018-12-11T18:53:21.355Z,15.20
2018-12-11T18:55:49.542Z,15.50
2018-12-11T18:58:17.769Z,11.83
2018-12-11T19:00:46.227Z,17.30
2018-12-11T19:03:15.042Z,18.87
2018-12-11T19:05:43.308Z,22.43
2018-12-11T19:08:11.566Z,21.30
2018-12-11T19:10:40.642Z,20.50
2018-12-11T19:13:08.795Z,17.57
2018-12-11T19:15:37.107Z,20.90
2018-12-11T19:18:05.395Z,24.10
2018-12-11T19:20:33.638Z,21.80
2018-12-11T19:23:10.772Z,20.77
2018-12-11T19:25:39.014Z,16.20
2018-12-11T19:28:07.240Z,18.63
2018-12-11T19:30:35.398Z,27.00
2018-12-11T19:33:04.931Z,22.87
2018-12-11T19:35:33.276Z,20.90
2018-12-11T19:38:02.456Z,22.90
2018-12-11T19:40:30.741Z,25.80
2018-12-11T19:42:58.920Z,20.13
2018-12-11T19:45:27.276Z,19.20
2018-12-11T19:47:56.207Z,28.27
2018-12-11T19:50:24.451Z,25.47
2018-12-11T19:52:52.605Z,22.10
2018-12-11T19:55:20.808Z,30.40
2018-12-11T19:57:48.996Z,23.07
2018-12-11T20:00:17.884Z,21.53
2018-12-11T20:02:46.039Z,18.93
2018-12-11T20:05:14.643Z,21.57
2018-12-11T20:07:44.403Z,19.77
2018-12-11T20:10:16.432Z,22.97
2018-12-11T20:12:44.773Z,22.00
2018-12-11T20:15:13.109Z,21.57
2018-12-11T20:17:41.279Z,28.37
2018-12-11T20:20:21.596Z,21.17
2018-12-11T20:22:49.899Z,17.50
2018-12-11T20:25:19.062Z,23.10
2018-12-11T20:27:47.361Z,22.17
2018-12-11T20:30:15.624Z,18.47
2018-12-11T20:32:44.795Z,24.67
2018-12-11T20:35:13.043Z,19.10
2018-12-11T20:37:42.288Z,19.87
2018-12-11T20:40:10.595Z,24.10
2018-12-11T20:42:39.795Z,26.00
2018-12-11T20:45:08.108Z,27.93
2018-12-11T20:47:37.039Z,22.00
2018-12-11T20:50:06.320Z,24.00
2018-12-11T20:52:34.507Z,23.93
2018-12-11T20:55:07.031Z,23.73
2018-12-11T20:57:36.264Z,24.20
2018-12-11T21:00:06.388Z,21.43
2018-12-11T21:02:34.869Z,20.67
2018-12-11T21:05:08.815Z,25.80
2018-12-11T21:07:38.168Z,16.57
2018-12-11T21:10:09.131Z,19.80
2018-12-11T21:12:38.314Z,20.17
2018-12-11T21:15:09.544Z,19.90
2018-12-11T21:17:37.731Z,23.57
2018-12-11T21:20:07.943Z,19.53
2018-12-11T21:22:37.102Z,23.53
2018-12-11T21:25:05.543Z,20.87
2018-12-11T21:27:34.110Z,18.83
2018-12-11T21:30:08.273Z,21.67
2018-12-11T21:32:36.536Z,17.63
2018-12-11T21:35:06.783Z,23.13
2018-12-11T21:37:34.983Z,25.70
2018-12-11T21:40:06.143Z,18.80
2018-12-11T21:42:34.337Z,19.37
2018-12-11T21:45:06.326Z,19.73
2018-12-11T21:47:35.598Z,22.27
2018-12-11T21:50:05.511Z,20.60
2018-12-11T21:52:33.710Z,24.70
2018-12-11T21:55:06.687Z,18.33
2018-12-11T21:57:34.888Z,22.43
2018-12-11T22:00:09.660Z,21.37
2018-12-11T22:02:38.042Z,21.30
2018-12-11T22:05:06.350Z,21.07
2018-12-11T22:07:34.562Z,22.60
2018-12-11T22:10:06.553Z,19.40
2018-12-11T22:12:35.235Z,24.53
2018-12-11T22:15:06.958Z,25.70
2018-12-11T22:17:35.143Z,21.70
2018-12-11T22:20:07.974Z,22.17
2018-12-11T22:22:36.735Z,28.17
2018-12-11T22:25:09.054Z,22.10
2018-12-11T22:27:44.859Z,25.60
2018-12-11T22:30:14.094Z,21.63
2018-12-11T22:32:54.622Z,18.97
2018-12-11T22:35:27.375Z,17.60
2018-12-11T22:37:55.555Z,21.43
2018-12-11T22:40:25.862Z,22.90
2018-12-11T22:42:54.049Z,28.37
2018-12-11T22:45:22.841Z,19.47
2018-12-11T22:47:51.082Z,17.60
2018-12-11T22:50:19.235Z,21.43
2018-12-11T22:52:48.073Z,24.20
2018-12-11T22:55:16.478Z,21.70
2018-12-11T22:57:45.070Z,23.07
2018-12-11T23:00:13.439Z,22.10
2018-12-11T23:02:41.835Z,20.37
2018-12-11T23:05:10.152Z,25.30
2018-12-11T23:07:38.335Z,24.70
2018-12-11T23:10:06.632Z,22.63
2018-12-11T23:12:36.403Z,23.50
2018-12-11T23:15:06.658Z,29.37
2018-12-11T23:17:34.851Z,22.10
2018-12-11T23:20:04.318Z,23.33
2018-12-11T23:22:33.418Z,20.17
2018-12-11T23:25:05.022Z,25.90
2018-12-11T23:27:33.201Z,21.80
2018-12-11T23:30:04.559Z,23.77
2018-12-11T23:32:33.764Z,17.67
2018-12-11T23:35:02.957Z,25.13
2018-12-11T23:37:31.153Z,26.83
2018-12-11T23:39:59.350Z,21.23
2018-12-11T23:42:27.516Z,19.00
2018-12-11T23:44:55.723Z,20.27
2018-12-11T23:47:23.870Z,20.47
2018-12-11T23:49:52.023Z,22.13
2018-12-11T23:52:20.786Z,19.13
2018-12-11T23:54:49.358Z,23.50
2018-12-11T23:57:17.605Z,17.00
2018-12-11T23:59:45.722Z,20.00
